Time;durP1;ratioP1;P1;durP2;ratioP2;P2;SDS_P1;SDS_P2;PMS_P1;PMS_P2;Temp;Humidity;BMP_temperature;BMP_pressure;BME280_temperature;BME280_humidity;BME280_pressure;Samples;Min_cycle;Max_cycle;Signal;HPM_P1;HPM_P2
2023/03/17 00:01:11;;;;;;;5.18;3.92;;;7.40;99.90;;;;;;5070260;28;20105;-35
2023/03/17 00:03:43;;;;;;;6.28;4.35;;;7.50;99.90;;;;;;5070341;28;20037;-35
2023/03/17 00:06:19;;;;;;;4.13;3.70;;;7.50;99.90;;;;;;5054300;28;20379;-35
2023/03/17 00:08:45;;;;;;;4.20;3.80;;;7.50;99.90;;;;;;5050214;28;20406;-35
2023/03/17 00:11:16;;;;;;;5.13;3.78;;;7.50;99.90;;;;;;5068803;28;20035;-35
2023/03/17 00:13:43;;;;;;;4.30;3.90;;;7.60;99.90;;;;;;5070427;28;20044;-36
2023/03/17 00:16:21;;;;;;;4.30;3.72;;;7.60;99.90;;;;;;5069596;28;20041;-35
2023/03/17 00:18:48;;;;;;;5.18;3.90;;;7.60;99.90;;;;;;5051490;28;20586;-35
2023/03/17 00:21:32;;;;;;;4.78;3.70;;;7.60;99.90;;;;;;5067650;28;20032;-35
2023/03/17 00:23:59;;;;;;;4.28;3.88;;;7.60;99.90;;;;;;5073088;28;20045;-34
2023/03/17 00:26:26;;;;;;;4.18;3.78;;;7.60;99.90;;;;;;5073661;28;20048;-34
2023/03/17 00:28:53;;;;;;;6.00;3.53;;;7.70;99.90;;;;;;5070360;28;20417;-35
2023/03/17 00:31:28;;;;;;;5.43;3.75;;;7.70;99.90;;;;;;5069984;28;20494;-35
2023/03/17 00:33:54;;;;;;;5.32;3.90;;;7.70;99.90;;;;;;5063703;28;20477;-35
2023/03/17 00:36:29;;;;;;;4.47;3.90;;;7.70;99.90;;;;;;5050381;28;20041;-35
2023/03/17 00:38:56;;;;;;;5.15;3.70;;;7.70;99.90;;;;;;5069030;28;20037;-34
2023/03/17 00:41:22;;;;;;;5.57;3.60;;;7.70;99.90;;;;;;5081024;28;20118;-35
2023/03/17 00:43:49;;;;;;;4.22;3.72;;;7.70;99.90;;;;;;5073638;28;20064;-36
2023/03/17 00:46:23;;;;;;;5.22;3.85;;;7.70;99.90;;;;;;5073387;28;20036;-35
2023/03/17 00:48:51;;;;;;;5.13;3.67;;;7.70;99.90;;;;;;5057640;28;20072;-36
2023/03/17 00:51:17;;;;;;;5.38;4.50;;;7.80;99.90;;;;;;5063770;28;20045;-35
2023/03/17 00:53:43;;;;;;;6.18;5.07;;;7.80;99.90;;;;;;5077836;28;20040;-35
2023/03/17 00:56:18;;;;;;;4.43;3.88;;;7.70;99.90;;;;;;5067004;28;20037;-36
2023/03/17 00:58:44;;;;;;;4.85;3.70;;;7.80;99.90;;;;;;5079498;28;20040;-35
2023/03/17 01:01:10;;;;;;;4.38;3.90;;;7.80;99.90;;;;;;5074449;28;20494;-35
2023/03/17 01:03:37;;;;;;;4.88;3.83;;;7.80;99.90;;;;;;5088592;28;20040;-35
2023/03/17 01:06:05;;;;;;;5.05;3.90;;;7.70;99.90;;;;;;5074024;28;20044;-35
2023/03/17 01:08:31;;;;;;;5.05;3.33;;;7.70;99.90;;;;;;5090270;28;20044;-35
2023/03/17 01:10:58;;;;;;;4.53;3.92;;;7.70;99.90;;;;;;5078187;28;20127;-35
2023/03/17 01:13:24;;;;;;;4.85;3.95;;;7.70;99.90;;;;;;5072546;28;20466;-35
2023/03/17 01:15:51;;;;;;;4.47;4.07;;;7.70;99.90;;;;;;5080194;28;20178;-36
2023/03/17 01:18:20;;;;;;;4.07;3.67;;;7.60;99.90;;;;;;5071281;28;20048;-35
2023/03/17 01:20:46;;;;;;;4.28;3.55;;;7.60;99.90;;;;;;5079401;28;20177;-35
2023/03/17 01:23:12;;;;;;;4.38;3.75;;;7.60;99.90;;;;;;5081902;28;20085;-35
2023/03/17 01:25:40;;;;;;;4.10;3.60;;;7.60;99.90;;;;;;5070996;28;20409;-35
2023/03/17 01:28:06;;;;;;;5.03;3.70;;;7.60;99.90;;;;;;5069125;28;20040;-35
2023/03/17 01:30:38;;;;;;;6.93;3.42;;;7.60;99.90;;;;;;5071808;28;20415;-35
2023/03/17 01:33:05;;;;;;;5.38;3.70;;;7.60;99.90;;;;;;5080244;28;20032;-35
2023/03/17 01:35:31;;;;;;;4.47;3.85;;;7.70;99.90;;;;;;5077826;28;20044;-35
2023/03/17 01:37:57;;;;;;;4.53;3.45;;;7.70;99.90;;;;;;5074772;28;20044;-35
2023/03/17 01:40:27;;;;;;;4.78;3.42;;;7.60;99.90;;;;;;5074695;28;20064;-35
2023/03/17 01:43:16;;;;;;;6.70;3.88;;;7.60;99.90;;;;;;5080219;28;20441;-34
2023/03/17 01:46:05;;;;;;;3.92;3.53;;;7.60;99.90;;;;;;5073331;28;20374;-35
2023/03/17 01:48:38;;;;;;;6.10;3.85;;;7.60;99.90;;;;;;5075655;28;20138;-35
2023/03/17 01:51:10;;;;;;;4.25;3.63;;;7.70;99.90;;;;;;5073689;28;20036;-35
2023/03/17 01:53:37;;;;;;;5.10;3.65;;;7.70;99.90;;;;;;5079180;28;20485;-35
2023/03/17 01:56:04;;;;;;;4.00;3.63;;;7.70;99.90;;;;;;5083675;28;20508;-35
2023/03/17 01:58:31;;;;;;;4.80;3.38;;;7.70;99.90;;;;;;5079652;28;20181;-35
2023/03/17 02:00:57;;;;;;;4.35;3.95;;;7.70;99.90;;;;;;5077500;28;20032;-35
2023/03/17 02:03:24;;;;;;;4.00;3.50;;;7.70;99.90;;;;;;5079198;28;20043;-35
2023/03/17 02:05:52;;;;;;;5.43;3.30;;;7.70;99.90;;;;;;5072756;28;20040;-35
2023/03/17 02:08:18;;;;;;;5.00;3.65;;;7.70;99.90;;;;;;5072538;28;20130;-35
2023/03/17 02:10:48;;;;;;;4.22;3.55;;;7.60;99.90;;;;;;5081272;28;20577;-35
2023/03/17 02:13:14;;;;;;;3.80;3.03;;;7.60;99.90;;;;;;5076456;28;20040;-35
2023/03/17 02:15:47;;;;;;;4.28;3.60;;;7.60;99.90;;;;;;5072475;28;20114;-35
2023/03/17 02:18:14;;;;;;;3.90;3.38;;;7.60;99.90;;;;;;5073842;28;20509;-35
2023/03/17 02:20:40;;;;;;;4.22;3.83;;;7.60;99.90;;;;;;5073139;28;20466;-35
2023/03/17 02:23:06;;;;;;;4.90;3.58;;;7.60;99.90;;;;;;5082896;28;20071;-35
2023/03/17 02:25:34;;;;;;;4.63;3.70;;;7.60;99.90;;;;;;5080565;28;20037;-36
2023/03/17 02:28:09;;;;;;;4.55;3.30;;;7.60;99.90;;;;;;5074279;28;20048;-35
2023/03/17 02:30:36;;;;;;;5.32;3.47;;;7.60;99.90;;;;;;5075488;28;20043;-35
2023/03/17 02:33:02;;;;;;;4.30;3.60;;;7.60;99.90;;;;;;5082467;28;20520;-35
2023/03/17 02:35:28;;;;;;;4.82;3.60;;;7.60;99.90;;;;;;5080667;28;20036;-36
2023/03/17 02:37:55;;;;;;;4.50;3.25;;;7.60;99.90;;;;;;5067911;28;20508;-34
2023/03/17 02:40:21;;;;;;;6.88;3.35;;;7.60;99.90;;;;;;5070802;28;20379;-35
2023/03/17 02:42:48;;;;;;;4.15;3.30;;;7.60;99.90;;;;;;5069645;28;20035;-35
2023/03/17 02:45:14;;;;;;;3.75;3.25;;;7.60;99.90;;;;;;5085881;28;20071;-34
2023/03/17 02:47:41;;;;;;;4.10;3.08;;;7.60;99.90;;;;;;5068065;28;20125;-35
2023/03/17 02:50:08;;;;;;;4.93;3.58;;;7.60;99.90;;;;;;5079039;28;20482;-35
2023/03/17 02:52:34;;;;;;;3.42;3.13;;;7.50;99.90;;;;;;5078138;28;20118;-35
2023/03/17 02:55:00;;;;;;;4.60;3.50;;;7.50;99.90;;;;;;5079526;28;20043;-32
2023/03/17 02:57:25;;;;;;;3.60;3.30;;;7.50;99.90;;;;;;5080424;28;20490;-35
2023/03/17 02:59:51;;;;;;;5.60;3.58;;;7.50;99.90;;;;;;5068197;28;20063;-34
2023/03/17 03:02:17;;;;;;;4.07;3.00;;;7.50;99.90;;;;;;5082511;28;20128;-35
2023/03/17 03:04:43;;;;;;;6.53;3.80;;;7.50;99.90;;;;;;5077558;28;20500;-35
2023/03/17 03:07:10;;;;;;;4.80;3.58;;;7.50;99.90;;;;;;5084743;28;20089;-35
2023/03/17 03:09:36;;;;;;;3.50;3.20;;;7.50;99.90;;;;;;5073689;28;20047;-35
2023/03/17 03:12:03;;;;;;;4.47;3.38;;;7.40;99.90;;;;;;5061998;28;20048;-35
2023/03/17 03:14:28;;;;;;;4.30;3.10;;;7.40;99.90;;;;;;5078557;28;20085;-35
2023/03/17 03:16:54;;;;;;;4.18;3.25;;;7.40;99.90;;;;;;5067595;28;20036;-36
2023/03/17 03:19:21;;;;;;;5.28;3.50;;;7.40;99.90;;;;;;5081907;28;20057;-35
2023/03/17 03:21:46;;;;;;;5.60;3.33;;;7.40;99.90;;;;;;5073508;28;20040;-35
2023/03/17 03:24:12;;;;;;;5.07;3.47;;;7.30;99.90;;;;;;5085410;28;20040;-35
2023/03/17 03:26:38;;;;;;;3.22;2.92;;;7.30;99.90;;;;;;5073022;28;20079;-35
2023/03/17 03:29:04;;;;;;;4.35;3.50;;;7.40;99.90;;;;;;5071193;28;20432;-36
2023/03/17 03:31:30;;;;;;;3.95;3.55;;;7.40;99.90;;;;;;5080895;28;20515;-35
2023/03/17 03:33:56;;;;;;;5.57;3.70;;;7.40;99.90;;;;;;5072464;28;20048;-35
2023/03/17 03:36:22;;;;;;;4.15;3.08;;;7.40;99.90;;;;;;5085225;28;20114;-35
2023/03/17 03:38:48;;;;;;;3.90;3.33;;;7.40;99.90;;;;;;5084850;28;20040;-35
2023/03/17 03:41:14;;;;;;;3.60;3.30;;;7.40;99.90;;;;;;5081787;28;20077;-35
2023/03/17 03:43:40;;;;;;;6.55;3.40;;;7.40;99.90;;;;;;5077360;28;20497;-35
2023/03/17 03:46:06;;;;;;;5.95;3.58;;;7.40;99.90;;;;;;5074176;28;20037;-36
2023/03/17 03:48:31;;;;;;;3.72;3.33;;;7.40;99.90;;;;;;5068896;28;20398;-35
2023/03/17 03:51:00;;;;;;;4.43;3.30;;;7.40;99.90;;;;;;5071823;28;20076;-35
2023/03/17 03:53:26;;;;;;;3.85;3.13;;;7.30;99.90;;;;;;5069749;28;20403;-35
2023/03/17 03:55:53;;;;;;;4.05;3.50;;;7.40;99.90;;;;;;5076788;28;20490;-35
2023/03/17 03:58:19;;;;;;;6.13;3.58;;;7.30;99.90;;;;;;5064968;28;20029;-35
2023/03/17 04:00:45;;;;;;;4.80;3.35;;;7.30;99.90;;;;;;5077610;28;20035;-35
2023/03/17 04:03:12;;;;;;;3.60;3.30;;;7.30;99.90;;;;;;5079296;28;20569;-35
2023/03/17 04:05:38;;;;;;;5.57;3.50;;;7.30;99.90;;;;;;5081062;28;20044;-34
2023/03/17 04:08:05;;;;;;;5.25;3.80;;;7.30;99.90;;;;;;5080938;28;20082;-36
2023/03/17 04:10:31;;;;;;;5.28;3.20;;;7.30;99.90;;;;;;5073807;28;20559;-35
2023/03/17 04:12:57;;;;;;;3.72;3.10;;;7.30;99.90;;;;;;5082434;28;20505;-34
2023/03/17 04:15:23;;;;;;;5.70;3.45;;;7.30;99.90;;;;;;5071502;28;20029;-35
2023/03/17 04:17:48;;;;;;;3.80;3.35;;;7.30;99.90;;;;;;5074548;28;20035;-35
2023/03/17 04:20:17;;;;;;;3.92;3.60;;;7.40;99.90;;;;;;5075095;28;20564;-35
2023/03/17 04:22:46;;;;;;;3.53;3.13;;;7.40;99.90;;;;;;5073784;28;20040;-35
2023/03/17 04:25:13;;;;;;;3.45;3.15;;;7.40;99.90;;;;;;5080163;28;20064;-35
2023/03/17 04:27:40;;;;;;;3.88;3.50;;;7.40;99.90;;;;;;5067255;28;20036;-35
2023/03/17 04:30:06;;;;;;;4.20;3.22;;;7.40;99.90;;;;;;5080020;28;20044;-35
2023/03/17 04:32:32;;;;;;;5.43;3.15;;;7.40;99.90;;;;;;5083740;28;20039;-35
2023/03/17 04:34:57;;;;;;;6.55;3.55;;;7.40;99.90;;;;;;5085019;28;20032;-35
2023/03/17 04:37:24;;;;;;;3.72;3.20;;;7.40;99.90;;;;;;5089659;28;20122;-34
2023/03/17 04:39:50;;;;;;;3.55;3.25;;;7.40;99.90;;;;;;5076321;28;20485;-35
2023/03/17 04:42:16;;;;;;;6.38;3.47;;;7.40;99.90;;;;;;5078280;28;20093;-39
2023/03/17 04:44:42;;;;;;;4.80;3.25;;;7.40;99.90;;;;;;5084527;28;20038;-35
2023/03/17 04:47:08;;;;;;;4.00;3.58;;;7.40;99.90;;;;;;5079917;28;20497;-35
2023/03/17 04:49:34;;;;;;;6.20;3.30;;;7.40;99.90;;;;;;5076512;28;20789;-35
2023/03/17 04:52:00;;;;;;;5.68;3.90;;;7.30;99.90;;;;;;5071884;28;20044;-36
2023/03/17 04:54:25;;;;;;;4.47;3.45;;;7.40;99.90;;;;;;5076115;28;20042;-35
2023/03/17 04:56:51;;;;;;;3.20;2.90;;;7.40;99.90;;;;;;5055007;28;20033;-37
2023/03/17 04:59:17;;;;;;;3.28;2.97;;;7.40;99.90;;;;;;5075066;28;20038;-36
2023/03/17 05:01:43;;;;;;;4.35;3.63;;;7.30;99.90;;;;;;5056597;28;20029;-36
2023/03/17 05:04:08;;;;;;;4.53;3.65;;;7.30;99.90;;;;;;5077682;28;20111;-36
2023/03/17 05:06:36;;;;;;;4.97;3.10;;;7.40;99.90;;;;;;5069876;28;21682;-35
2023/03/17 05:09:02;;;;;;;5.85;3.40;;;7.40;99.90;;;;;;5077816;28;20059;-36
2023/03/17 05:11:28;;;;;;;4.95;3.15;;;7.30;99.90;;;;;;5079551;28;20109;-36
2023/03/17 05:13:54;;;;;;;4.75;3.22;;;7.30;99.90;;;;;;5064083;28;20505;-36
2023/03/17 05:16:22;;;;;;;3.50;2.90;;;7.30;99.90;;;;;;5074590;28;20036;-36
2023/03/17 05:18:48;;;;;;;3.35;3.15;;;7.30;99.90;;;;;;5070912;28;20113;-34
2023/03/17 05:21:14;;;;;;;4.15;3.22;;;7.30;99.90;;;;;;5080376;28;20044;-36
2023/03/17 05:23:40;;;;;;;5.78;3.40;;;7.30;99.90;;;;;;5078159;28;20079;-36
2023/03/17 05:26:06;;;;;;;4.65;3.45;;;7.30;99.90;;;;;;5083018;28;20040;-36
2023/03/17 05:28:32;;;;;;;4.00;3.40;;;7.30;99.90;;;;;;5082790;28;20406;-36
2023/03/17 05:30:58;;;;;;;5.90;3.55;;;7.30;99.90;;;;;;5066649;28;20040;-36
2023/03/17 05:33:24;;;;;;;5.97;3.85;;;7.30;99.90;;;;;;5079372;28;20477;-36
2023/03/17 05:35:50;;;;;;;3.75;3.22;;;7.30;99.90;;;;;;5068480;28;20115;-36
2023/03/17 05:38:16;;;;;;;3.97;3.55;;;7.30;99.90;;;;;;5074377;28;20115;-36
2023/03/17 05:40:42;;;;;;;4.68;3.25;;;7.30;99.90;;;;;;5079075;28;20043;-36
2023/03/17 05:43:08;;;;;;;3.95;3.42;;;7.30;99.90;;;;;;5074013;28;20041;-36
2023/03/17 05:45:34;;;;;;;3.95;3.33;;;7.40;99.90;;;;;;5085118;28;20054;-36
2023/03/17 05:47:59;;;;;;;4.95;3.45;;;7.40;99.90;;;;;;5069399;28;20044;-36
2023/03/17 05:50:25;;;;;;;4.32;3.55;;;7.40;99.90;;;;;;5080271;28;20045;-36
2023/03/17 05:52:52;;;;;;;4.07;3.45;;;7.50;99.90;;;;;;5076098;28;20540;-36
2023/03/17 05:55:18;;;;;;;3.50;3.20;;;7.50;99.90;;;;;;5083904;28;20047;-36
2023/03/17 05:57:45;;;;;;;3.97;3.22;;;7.50;99.90;;;;;;5075007;28;20513;-36
2023/03/17 06:00:14;;;;;;;4.07;3.03;;;7.50;99.90;;;;;;5069967;28;20049;-36
2023/03/17 06:02:41;;;;;;;5.45;3.70;;;7.60;99.90;;;;;;5057901;28;20490;-36
2023/03/17 06:05:08;;;;;;;3.58;3.25;;;7.60;99.90;;;;;;5057456;28;20029;-36
2023/03/17 06:07:35;;;;;;;3.92;3.53;;;7.50;99.90;;;;;;5056867;28;20041;-36
2023/03/17 06:10:02;;;;;;;4.85;3.38;;;7.60;99.90;;;;;;5063704;28;20386;-36
2023/03/17 06:12:28;;;;;;;4.18;3.78;;;7.60;99.90;;;;;;5054841;28;20033;-36
2023/03/17 06:14:53;;;;;;;4.70;3.80;;;7.60;99.90;;;;;;5056347;28;20033;-36
2023/03/17 06:17:20;;;;;;;4.80;4.32;;;7.60;99.90;;;;;;5053230;28;20068;-36
2023/03/17 06:19:46;;;;;;;4.82;4.32;;;7.70;99.90;;;;;;5057888;28;20032;-36
2023/03/17 06:22:12;;;;;;;5.72;5.22;;;7.70;99.90;;;;;;5059574;28;20482;-36
2023/03/17 06:24:38;;;;;;;5.25;3.67;;;7.70;99.90;;;;;;5056390;28;20402;-36
2023/03/17 06:27:04;;;;;;;8.25;3.97;;;7.80;99.90;;;;;;5059583;28;20032;-36
2023/03/17 06:29:30;;;;;;;5.38;3.55;;;7.80;99.90;;;;;;5063874;28;21130;-37
2023/03/17 06:31:56;;;;;;;6.32;5.72;;;7.90;99.90;;;;;;5057525;28;20033;-36
2023/03/17 06:34:22;;;;;;;6.22;5.70;;;7.90;99.90;;;;;;5065496;28;20043;-36
2023/03/17 06:36:48;;;;;;;6.47;4.95;;;8.00;99.90;;;;;;5063014;28;20032;-36
2023/03/17 06:39:16;;;;;;;5.45;4.70;;;8.10;99.90;;;;;;5063171;28;20170;-36
2023/03/17 06:41:43;;;;;;;4.80;3.80;;;8.20;99.90;;;;;;5071843;28;20040;-36
2023/03/17 06:44:08;;;;;;;5.93;4.38;;;8.30;99.90;;;;;;5063000;28;20064;-36
2023/03/17 06:46:35;;;;;;;5.65;3.80;;;8.40;99.90;;;;;;5055903;28;20504;-36
2023/03/17 06:49:02;;;;;;;4.70;4.30;;;8.50;99.90;;;;;;5041158;28;20143;-36
2023/03/17 06:51:28;;;;;;;4.45;4.05;;;8.60;99.90;;;;;;5054068;28;20033;-36
2023/03/17 06:53:54;;;;;;;5.80;4.72;;;8.70;99.90;;;;;;5053371;28;20044;-36
2023/03/17 06:56:20;;;;;;;6.22;4.78;;;8.80;99.90;;;;;;5061128;28;20063;-36
2023/03/17 06:58:45;;;;;;;6.43;4.35;;;8.90;99.90;;;;;;5085265;28;20028;-36
2023/03/17 07:01:13;;;;;;;5.85;5.05;;;9.00;99.90;;;;;;5075078;28;20032;-36
2023/03/17 07:03:39;;;;;;;5.22;4.15;;;9.10;99.90;;;;;;5073977;28;20087;-36
2023/03/17 07:06:05;;;;;;;6.63;5.18;;;9.10;99.90;;;;;;5078720;28;20060;-36
2023/03/17 07:08:32;;;;;;;14.98;10.27;;;9.20;99.90;;;;;;5066904;28;20042;-34
2023/03/17 07:10:58;;;;;;;9.07;6.07;;;9.20;99.90;;;;;;5082378;28;20120;-36
2023/03/17 07:13:24;;;;;;;5.90;4.90;;;9.30;99.90;;;;;;5067046;28;20116;-36
2023/03/17 07:15:50;;;;;;;5.22;3.85;;;9.30;99.90;;;;;;5085952;28;20050;-36
2023/03/17 07:18:17;;;;;;;5.05;3.55;;;9.30;99.90;;;;;;5072276;28;20037;-33
2023/03/17 07:20:43;;;;;;;4.82;4.28;;;9.30;99.90;;;;;;5065201;28;20104;-36
2023/03/17 07:23:21;;;;;;;7.65;4.45;;;9.30;99.90;;;;;;5068969;28;20070;-34
2023/03/17 07:25:47;;;;;;;5.38;4.40;;;9.40;99.90;;;;;;5076538;28;20036;-36
2023/03/17 07:28:14;;;;;;;5.72;4.20;;;9.40;99.90;;;;;;5073720;28;20044;-36
2023/03/17 07:30:45;;;;;;;4.78;4.13;;;9.40;99.90;;;;;;5076863;28;20041;-36
2023/03/17 07:33:12;;;;;;;4.72;3.85;;;9.40;99.90;;;;;;5065208;28;20406;-36
2023/03/17 07:35:38;;;;;;;4.85;3.45;;;9.50;99.90;;;;;;5059293;28;20189;-36
2023/03/17 07:38:06;;;;;;;8.15;4.45;;;9.60;99.90;;;;;;5073298;28;20123;-36
2023/03/17 07:40:31;;;;;;;4.95;4.13;;;9.60;99.90;;;;;;5068894;28;20043;-36
2023/03/17 07:42:57;;;;;;;4.63;3.70;;;9.60;99.90;;;;;;5081425;28;20032;-33
2023/03/17 07:45:23;;;;;;;4.38;3.80;;;9.70;99.90;;;;;;5066670;28;20032;-34
2023/03/17 07:47:49;;;;;;;5.25;4.35;;;9.80;99.90;;;;;;5054650;28;20072;-36
2023/03/17 07:50:15;;;;;;;5.05;3.70;;;9.80;99.90;;;;;;5066470;28;20041;-36
2023/03/17 07:52:41;;;;;;;3.58;3.28;;;9.90;99.90;;;;;;5065462;28;20512;-33
2023/03/17 07:55:11;;;;;;;5.82;3.92;;;10.00;99.90;;;;;;5068715;28;20040;-36
2023/03/17 07:57:37;;;;;;;4.93;3.50;;;10.10;99.90;;;;;;5067644;28;20063;-37
2023/03/17 08:00:12;;;;;;;4.93;4.05;;;10.30;99.90;;;;;;5059955;28;20040;-34
2023/03/17 08:02:38;;;;;;;5.68;3.92;;;10.40;99.90;;;;;;5076340;28;20039;-36
2023/03/17 08:05:06;;;;;;;4.65;3.90;;;10.40;99.90;;;;;;5066701;28;20040;-36
2023/03/17 08:07:33;;;;;;;6.65;4.22;;;10.40;99.90;;;;;;5084229;28;20063;-35
2023/03/17 08:09:59;;;;;;;4.80;4.30;;;10.40;99.90;;;;;;5063970;28;20414;-36
2023/03/17 08:12:24;;;;;;;5.95;4.40;;;10.50;99.90;;;;;;5063161;28;20029;-36
2023/03/17 08:14:51;;;;;;;4.25;3.63;;;10.60;99.90;;;;;;5072636;28;20507;-36
2023/03/17 08:17:17;;;;;;;5.13;3.95;;;10.70;99.90;;;;;;5055067;28;20086;-36
2023/03/17 08:19:42;;;;;;;7.18;4.18;;;10.70;99.90;;;;;;5070495;28;20386;-37
2023/03/17 08:22:09;;;;;;;5.30;3.72;;;10.80;99.90;;;;;;5060343;28;20466;-36
2023/03/17 08:24:36;;;;;;;6.07;3.88;;;10.90;99.90;;;;;;5074075;28;20510;-36
2023/03/17 08:27:02;;;;;;;4.45;4.05;;;10.90;99.90;;;;;;5067913;28;20032;-36
2023/03/17 08:29:29;;;;;;;5.32;3.92;;;10.90;99.90;;;;;;5078472;28;20041;-37
2023/03/17 08:31:55;;;;;;;6.05;4.68;;;11.00;99.90;;;;;;5066614;28;20048;-36
2023/03/17 08:34:22;;;;;;;8.88;7.57;;;11.20;99.90;;;;;;5064614;28;20056;-37
2023/03/17 08:36:49;;;;;;;10.70;7.40;;;11.20;99.90;;;;;;5068692;28;20029;-34
2023/03/17 08:39:16;;;;;;;8.38;6.18;;;11.30;99.90;;;;;;5085924;28;20435;-37
2023/03/17 08:41:42;;;;;;;7.55;5.25;;;11.40;99.90;;;;;;5063198;28;20036;-37
2023/03/17 08:44:09;;;;;;;7.70;4.15;;;11.40;99.90;;;;;;5069713;28;20044;-34
2023/03/17 08:46:35;;;;;;;7.55;4.07;;;11.50;99.90;;;;;;5060101;28;20502;-36
2023/03/17 08:49:02;;;;;;;4.00;3.60;;;11.50;99.90;;;;;;5061292;28;20425;-36
2023/03/17 08:51:34;;;;;;;6.10;4.40;;;11.50;99.90;;;;;;5060836;28;20041;-34
2023/03/17 08:54:00;;;;;;;7.70;4.15;;;11.70;99.90;;;;;;5062963;28;20036;-36
2023/03/17 08:56:26;;;;;;;6.60;4.20;;;11.80;99.90;;;;;;5070387;28;20029;-37
2023/03/17 08:58:52;;;;;;;4.40;4.00;;;11.90;99.90;;;;;;5055411;28;20061;-37
2023/03/17 09:01:20;;;;;;;6.35;4.50;;;12.10;99.90;;;;;;5072307;28;20401;-37
2023/03/17 09:03:46;;;;;;;5.97;4.13;;;12.20;99.90;;;;;;5068482;28;20040;-35
2023/03/17 09:06:12;;;;;;;5.45;3.90;;;12.30;99.90;;;;;;5082449;28;20097;-35
2023/03/17 09:08:43;;;;;;;5.32;4.25;;;12.40;99.90;;;;;;5067977;28;20044;-38
2023/03/17 09:11:15;;;;;;;5.72;4.03;;;12.60;99.90;;;;;;5063197;28;20041;-38
2023/03/17 09:13:41;;;;;;;5.15;3.97;;;12.60;99.90;;;;;;5061788;28;20036;-35
2023/03/17 09:16:07;;;;;;;7.30;4.60;;;12.70;99.90;;;;;;5062872;28;20029;-35
2023/03/17 09:18:33;;;;;;;6.47;3.90;;;12.80;99.90;;;;;;5072681;28;20044;-38
2023/03/17 09:21:01;;;;;;;6.28;3.97;;;13.00;99.90;;;;;;5069793;28;20169;-38
2023/03/17 09:23:27;;;;;;;7.32;4.47;;;13.20;99.90;;;;;;5058166;28;20087;-36
2023/03/17 09:25:52;;;;;;;5.70;4.45;;;13.40;99.90;;;;;;5064885;28;20041;-35
2023/03/17 09:28:18;;;;;;;4.90;4.38;;;13.80;99.90;;;;;;5060112;28;20039;-35
2023/03/17 09:30:45;;;;;;;5.28;4.30;;;14.10;99.90;;;;;;5061191;28;20045;-38
2023/03/17 09:33:12;;;;;;;6.40;4.53;;;14.70;99.90;;;;;;5057874;28;20423;-38
2023/03/17 09:35:38;;;;;;;5.25;4.00;;;15.10;99.10;;;;;;5056008;28;20028;-37
2023/03/17 09:38:05;;;;;;;7.90;4.40;;;15.40;93.00;;;;;;5058930;28;20036;-38
2023/03/17 09:40:42;;;;;;;5.43;4.13;;;15.80;91.30;;;;;;5069455;28;20137;-38
2023/03/17 09:43:25;;;;;;;5.47;4.03;;;16.00;79.70;;;;;;5054601;28;20124;-38
2023/03/17 09:45:51;;;;;;;5.63;4.60;;;16.00;61.70;;;;;;5059131;28;20159;-38
2023/03/17 09:48:43;;;;;;;7.00;4.28;;;16.10;78.50;;;;;;5053923;28;20123;-38
2023/03/17 09:51:13;;;;;;;5.63;4.13;;;16.30;64.10;;;;;;5061891;28;20040;-38
2023/03/17 09:54:01;;;;;;;7.03;4.45;;;16.60;65.50;;;;;;5063396;28;20039;-38
2023/03/17 09:56:33;;;;;;;4.60;4.20;;;16.60;61.60;;;;;;5067890;28;20039;-38
2023/03/17 09:59:24;;;;;;;7.57;4.35;;;16.70;62.20;;;;;;5060783;28;20037;-38
2023/03/17 10:01:50;;;;;;;5.32;4.35;;;17.20;64.30;;;;;;5055791;28;20560;-38
2023/03/17 10:04:17;;;;;;;7.25;4.38;;;17.40;62.90;;;;;;5054729;28;20037;-38
2023/03/17 10:06:45;;;;;;;5.93;4.68;;;17.40;60.60;;;;;;5058512;28;20182;-38
2023/03/17 10:09:22;;;;;;;9.15;4.70;;;17.50;59.60;;;;;;5070250;28;20508;-38
2023/03/17 10:12:00;;;;;;;5.07;4.45;;;17.50;58.60;;;;;;5063715;28;20036;-38
2023/03/17 10:14:55;;;;;;;6.05;4.45;;;17.60;59.00;;;;;;5070536;28;20036;-38
2023/03/17 10:17:35;;;;;;;5.60;4.82;;;18.20;59.70;;;;;;5061224;28;20428;-38
2023/03/17 10:20:07;;;;;;;6.72;5.13;;;18.40;57.30;;;;;;5078540;28;20075;-38
2023/03/17 10:22:41;;;;;;;5.90;4.55;;;18.90;57.40;;;;;;5069809;28;20039;-38
2023/03/17 10:25:19;;;;;;;6.47;4.40;;;19.10;57.20;;;;;;5065331;28;20178;-38
2023/03/17 10:28:10;;;;;;;6.32;4.50;;;19.30;54.10;;;;;;5063257;28;20036;-38
2023/03/17 10:30:36;;;;;;;6.32;5.00;;;19.60;57.00;;;;;;5065466;28;20037;-38
2023/03/17 10:33:05;;;;;;;7.10;5.30;;;20.00;57.40;;;;;;5072238;28;20089;-38
2023/03/17 10:35:35;;;;;;;7.20;4.88;;;20.50;56.10;;;;;;5070033;28;20040;-38
2023/03/17 10:38:20;;;;;;;5.22;4.65;;;20.60;54.90;;;;;;5060491;28;20045;-38
2023/03/17 10:40:59;;;;;;;5.20;4.70;;;20.40;54.00;;;;;;5070070;28;20040;-38
2023/03/17 10:43:34;;;;;;;6.07;4.43;;;20.30;52.90;;;;;;5066738;28;20083;-38
2023/03/17 10:46:03;;;;;;;5.70;4.30;;;20.30;53.10;;;;;;5059452;28;20041;-38
2023/03/17 10:48:34;;;;;;;6.93;4.75;;;20.40;53.20;;;;;;5071035;28;20041;-38
2023/03/17 10:51:06;;;;;;;6.25;4.93;;;20.10;53.00;;;;;;5080829;28;20040;-38
2023/03/17 10:53:42;;;;;;;6.43;4.82;;;20.10;52.50;;;;;;5073857;28;20040;-38
2023/03/17 10:56:10;;;;;;;6.78;4.97;;;20.20;53.10;;;;;;5077314;28;20036;-38
2023/03/17 10:58:49;;;;;;;10.15;5.35;;;20.00;53.10;;;;;;5079352;28;20493;-37
2023/03/17 11:01:42;;;;;;;7.10;5.32;;;19.50;52.00;;;;;;5075527;28;20036;-38
2023/03/17 11:04:24;;;;;;;;;;;19.60;52.70;;;;;;5081129;28;20081;-38
2023/03/17 11:06:51;;;;;;;5.68;4.20;;;19.20;49.90;;;;;;5077017;28;19916;-39
2023/03/17 11:09:20;;;;;;;5.20;4.70;;;19.50;53.90;;;;;;5068296;28;20067;-38
2023/03/17 11:11:48;;;;;;;6.90;5.13;;;19.50;53.20;;;;;;5062598;28;20504;-38
2023/03/17 11:14:17;;;;;;;8.88;5.28;;;19.70;53.60;;;;;;5069672;28;20375;-38
2023/03/17 11:16:58;;;;;;;6.20;4.88;;;20.00;53.60;;;;;;5060757;28;20054;-38
2023/03/17 11:19:41;;;;;;;5.72;4.70;;;20.40;52.20;;;;;;5075737;28;20028;-37
2023/03/17 11:22:10;;;;;;;6.80;5.03;;;20.30;50.90;;;;;;5066599;28;20037;-38
2023/03/17 11:24:50;;;;;;;4.90;4.40;;;20.40;51.50;;;;;;5073796;28;20123;-37
2023/03/17 11:27:42;;;;;;;7.25;4.97;;;20.30;51.00;;;;;;5073160;28;20099;-37
2023/03/17 11:30:26;;;;;;;6.88;5.20;;;20.70;51.50;;;;;;5068429;28;20504;-38
2023/03/17 11:33:15;;;;;;;5.85;4.40;;;21.40;51.20;;;;;;5062762;28;20028;-38
2023/03/17 11:35:44;;;;;;;5.95;4.57;;;21.80;50.10;;;;;;5070192;28;20043;-38
2023/03/17 11:38:15;;;;;;;5.18;4.05;;;22.50;50.10;;;;;;5082464;28;20123;-38
2023/03/17 11:40:56;;;;;;;7.65;5.18;;;22.60;48.50;;;;;;5082014;28;20039;-38
2023/03/17 11:43:56;;;;;;;6.72;5.13;;;22.10;47.50;;;;;;5071065;28;20490;-38
2023/03/17 11:46:44;;;;;;;6.18;4.47;;;21.80;46.90;;;;;;5046700;28;20041;-38
2023/03/17 11:49:23;;;;;;;5.78;5.00;;;21.00;46.10;;;;;;5069020;28;20036;-38
2023/03/17 11:51:58;;;;;;;5.97;4.90;;;21.00;49.30;;;;;;5070028;28;20032;-37
2023/03/17 11:54:46;;;;;;;7.13;4.82;;;20.80;49.70;;;;;;5077911;28;20089;-38
2023/03/17 11:57:16;;;;;;;6.13;4.45;;;20.60;48.90;;;;;;5077746;28;20032;-38
2023/03/17 11:59:55;;;;;;;7.50;4.68;;;20.60;50.00;;;;;;5075299;28;20097;-37
2023/03/17 12:02:42;;;;;;;7.80;4.30;;;20.30;49.60;;;;;;5081021;28;20408;-38
2023/03/17 12:05:11;;;;;;;7.75;4.95;;;19.90;49.90;;;;;;5067088;28;20142;-38
2023/03/17 12:07:45;;;;;;;7.57;4.88;;;20.00;50.60;;;;;;5065193;28;20051;-37
2023/03/17 12:10:25;;;;;;;8.40;5.07;;;20.10;50.90;;;;;;5070230;28;20036;-37
2023/03/17 12:13:00;;;;;;;8.18;4.88;;;20.50;50.30;;;;;;5069844;28;20043;-37
2023/03/17 12:15:43;;;;;;;10.10;5.38;;;20.50;49.40;;;;;;5066805;28;20036;-38
2023/03/17 12:18:35;;;;;;;5.32;4.82;;;20.50;50.40;;;;;;5073760;28;20073;-37
2023/03/17 12:21:25;;;;;;;6.28;4.25;;;20.50;50.20;;;;;;5054063;28;20408;-37
2023/03/17 12:24:02;;;;;;;5.40;4.70;;;20.70;50.80;;;;;;5063952;28;20093;-37
2023/03/17 12:26:57;;;;;;;6.10;4.78;;;21.00;50.70;;;;;;5077463;28;20045;-37
2023/03/17 12:29:54;;;;;;;6.90;4.95;;;20.50;49.30;;;;;;5040132;28;20071;-37
2023/03/17 12:32:23;;;;;;;6.40;4.82;;;20.20;50.80;;;;;;5075995;28;20028;-37
2023/03/17 12:34:58;;;;;;;5.15;4.72;;;19.90;51.30;;;;;;5078833;28;20485;-37
2023/03/17 12:37:27;;;;;;;5.57;4.80;;;19.90;52.70;;;;;;5079943;28;20040;-37
2023/03/17 12:39:59;;;;;;;6.03;5.20;;;19.40;52.20;;;;;;5077608;28;20492;-37
2023/03/17 12:43:11;;;;;;;6.18;4.65;;;19.00;52.40;;;;;;5061604;28;20064;-37
2023/03/17 12:45:46;;;;;;;7.18;5.05;;;18.70;52.70;;;;;;5080932;28;20040;-37
2023/03/17 12:48:28;;;;;;;7.28;4.80;;;18.50;53.80;;;;;;5070386;28;20039;-36
2023/03/17 12:51:25;;;;;;;5.90;4.97;;;18.30;54.40;;;;;;5076448;28;20044;-37
2023/03/17 12:53:51;;;;;;;6.32;4.60;;;18.20;54.60;;;;;;5065968;28;20032;-37
2023/03/17 12:56:29;;;;;;;5.57;4.43;;;18.20;55.60;;;;;;5072216;28;20371;-37
2023/03/17 12:59:02;;;;;;;6.22;5.20;;;18.10;55.20;;;;;;5070997;28;20064;-37
2023/03/17 13:01:36;;;;;;;5.13;4.57;;;18.10;55.80;;;;;;5080822;28;20029;-36
2023/03/17 13:04:16;;;;;;;8.43;5.00;;;18.70;55.60;;;;;;5087189;28;20093;-37
2023/03/17 13:06:46;;;;;;;5.18;4.65;;;19.20;55.10;;;;;;5072665;28;20032;-37